Time;durP1;ratioP1;P1;durP2;ratioP2;P2;SDS_P1;SDS_P2;PMS_P1;PMS_P2;Temp;Humidity;BMP_temperature;BMP_pressure;BME280_temperature;BME280_humidity;BME280_pressure;Samples;Min_cycle;Max_cycle;Signal;HPM_P1;HPM_P2
2021/12/13 00:00:32;;;;;;;10.65;6.13;;;;;;;9.24;74.95;100778.13;5013717;28;20085;-75
2021/12/13 00:03:17;;;;;;;7.50;5.97;;;;;;;9.21;76.18;100797.13;5027700;28;20037;-75
2021/12/13 00:05:55;;;;;;;8.48;5.53;;;;;;;9.19;76.40;100789.22;5018502;28;20034;-75
2021/12/13 00:08:30;;;;;;;8.82;5.88;;;;;;;9.19;76.76;100783.84;5012941;28;20053;-75
2021/12/13 00:11:06;;;;;;;7.55;5.70;;;;;;;9.09;76.20;100782.78;5013416;28;20108;-75
2021/12/13 00:13:44;;;;;;;10.95;6.53;;;;;;;9.06;75.84;100782.16;5028958;28;20030;-75
2021/12/13 00:16:11;;;;;;;9.73;6.57;;;;;;;9.07;76.23;100782.06;5014563;28;20570;-75
2021/12/13 00:18:43;;;;;;;12.15;6.97;;;;;;;9.05;75.76;100769.72;5013675;28;20104;-75
2021/12/13 00:21:12;;;;;;;;;;;;;;;8.97;74.99;100777.47;5013697;28;20498;-75
2021/12/13 00:23:54;;;;;;;7.40;6.10;;;;;;;8.92;75.50;100771.59;5013555;28;19963;-75
2021/12/13 00:26:31;;;;;;;6.63;5.95;;;;;;;8.85;75.52;100751.53;5013053;28;20033;-75
2021/12/13 00:28:57;;;;;;;6.90;5.25;;;;;;;8.83;74.75;100758.84;5013474;28;20176;-75
2021/12/13 00:31:25;;;;;;;6.50;4.57;;;;;;;8.77;73.84;100764.66;5013061;28;20120;-75
2021/12/13 00:34:20;;;;;;;5.75;4.68;;;;;;;8.62;72.80;100772.78;5013001;28;20022;-75
2021/12/13 00:36:55;;;;;;;7.60;3.92;;;;;;;8.58;73.52;100787.41;5013133;28;20083;-75
2021/12/13 00:39:28;;;;;;;5.00;4.03;;;;;;;8.59;73.87;100790.94;5012873;28;20029;-76
2021/12/13 00:41:56;;;;;;;8.52;4.38;;;;;;;8.66;74.42;100794.88;5012602;28;20030;-75
2021/12/13 00:44:26;;;;;;;6.03;4.35;;;;;;;8.68;74.68;100788.44;5012702;28;20021;-75
2021/12/13 00:46:54;;;;;;;5.70;4.50;;;;;;;8.65;73.98;100785.97;5012721;28;20029;-77
2021/12/13 00:49:26;;;;;;;4.95;3.92;;;;;;;8.67;73.96;100807.34;5012637;28;20029;-76
2021/12/13 00:51:56;;;;;;;7.93;5.05;;;;;;;8.57;72.93;100809.81;5013957;28;20121;-76
2021/12/13 00:54:27;;;;;;;7.35;5.32;;;;;;;8.67;73.38;100824.28;5015414;28;20411;-75
2021/12/13 00:56:59;;;;;;;8.40;5.65;;;;;;;8.56;72.81;100817.97;5015416;28;20022;-75
2021/12/13 00:59:35;;;;;;;6.57;4.88;;;;;;;8.66;73.41;100837.78;5013736;28;20029;-76
2021/12/13 01:02:26;;;;;;;8.55;5.03;;;;;;;8.69;73.14;100841.13;5014223;28;20061;-77
2021/12/13 01:05:26;;;;;;;6.55;3.60;;;;;;;8.63;72.66;100838.00;5013415;28;20377;-76
2021/12/13 01:08:16;;;;;;;5.72;3.95;;;;;;;8.64;73.13;100845.94;5015366;28;20432;-74
2021/12/13 01:11:07;;;;;;;5.20;3.67;;;;;;;8.51;72.77;100839.72;5017053;28;20022;-78
2021/12/13 01:13:39;;;;;;;5.80;3.97;;;;;;;8.51;72.63;100850.44;5018666;28;20049;-76
2021/12/13 01:21:59;;;;;;;6.18;4.28;;;;;;;8.35;73.86;100822.97;5018649;28;20037;-76
2021/12/13 01:25:40;;;;;;;5.55;4.40;;;;;;;8.35;74.15;100817.63;5017126;28;20026;-77
2021/12/13 01:27:30;;;;;;;4.18;3.67;;;;;;;8.33;74.05;100819.56;5004451;28;20088;-76
2021/12/13 01:29:59;;;;;;;5.40;4.32;;;;;;;8.32;74.64;100804.44;5017258;28;20022;-76
2021/12/13 01:32:38;;;;;;;5.85;4.57;;;;;;;8.36;74.94;100807.75;5015599;28;20558;-76
2021/12/13 01:35:09;;;;;;;5.88;4.82;;;;;;;8.38;75.48;100798.66;5017081;28;20104;-76
2021/12/13 01:37:38;;;;;;;4.82;4.35;;;;;;;8.38;74.72;100793.28;5017463;28;20053;-76
2021/12/13 01:40:12;;;;;;;5.95;4.55;;;;;;;8.38;74.23;100795.13;5023521;28;20016;-76
2021/12/13 01:42:40;;;;;;;4.60;4.10;;;;;;;8.34;74.10;100789.13;5023444;28;20368;-76
2021/12/13 01:45:13;;;;;;;5.40;3.92;;;;;;;8.34;74.32;100783.75;5017145;28;20093;-75
2021/12/13 01:47:45;;;;;;;4.80;4.30;;;;;;;8.38;74.08;100779.06;5016019;28;20546;-76
2021/12/13 01:50:18;;;;;;;11.82;4.10;;;;;;;8.37;73.28;100785.38;5016879;28;20036;-76
2021/12/13 01:52:48;;;;;;;4.93;3.60;;;;;;;8.37;72.96;100799.63;5017020;28;20033;-76
2021/12/13 01:55:39;;;;;;;5.82;4.00;;;;;;;8.36;73.22;100805.94;5016660;28;20063;-77
2021/12/13 01:58:19;;;;;;;4.45;3.95;;;;;;;8.37;72.99;100815.72;5016814;28;20479;-76
2021/12/13 02:03:57;;;;;;;4.88;4.07;;;;;;;8.37;72.70;100807.66;5016592;28;20454;-76
2021/12/13 02:06:25;;;;;;;5.93;3.92;;;;;;;8.32;73.16;100803.59;5016225;28;20093;-75
2021/12/13 02:08:56;;;;;;;7.15;4.47;;;;;;;8.23;73.13;100813.06;5017151;28;20041;-75
2021/12/13 02:11:27;;;;;;;5.30;3.92;;;;;;;8.27;73.19;100813.72;5018380;28;20022;-75
2021/12/13 02:14:09;;;;;;;5.88;4.68;;;;;;;8.31;72.67;100813.44;5018242;28;20030;-74
2021/12/13 02:16:57;;;;;;;5.75;5.13;;;;;;;8.39;72.18;100815.59;5016063;28;20018;-76
2021/12/13 02:19:45;;;;;;;4.32;3.92;;;;;;;8.43;72.59;100819.78;5015512;28;20053;-76
2021/12/13 02:22:33;;;;;;;25.23;4.85;;;;;;;8.33;72.57;100805.28;5015178;28;20049;-77
2021/12/13 02:25:04;;;;;;;5.30;4.57;;;;;;;8.30;72.73;100792.97;5017173;28;20044;-77
2021/12/13 02:27:34;;;;;;;6.13;4.95;;;;;;;8.20;72.24;100791.84;5016937;28;20149;-76
2021/12/13 02:30:07;;;;;;;5.07;4.28;;;;;;;8.16;72.45;100795.72;5016238;28;20392;-78
2021/12/13 02:32:35;;;;;;;6.03;4.75;;;;;;;8.19;73.38;100800.88;5030990;28;20463;-77
2021/12/13 02:35:03;;;;;;;54.85;7.45;;;;;;;8.20;73.04;100819.50;5015816;28;20099;-75
2021/12/13 02:37:29;;;;;;;5.78;4.97;;;;;;;8.26;73.51;100820.91;5015379;28;20101;-75
2021/12/13 02:39:58;;;;;;;5.85;4.93;;;;;;;8.26;73.41;100817.34;5014679;28;20052;-76
2021/12/13 02:42:28;;;;;;;6.63;4.32;;;;;;;8.16;72.36;100790.38;5015179;28;20476;-76
2021/12/13 02:45:01;;;;;;;7.32;4.85;;;;;;;8.19;72.25;100811.59;5015118;28;20017;-76
2021/12/13 02:47:37;;;;;;;9.00;4.80;;;;;;;8.18;72.61;100809.84;5015361;28;20026;-75
2021/12/13 02:50:07;;;;;;;6.13;5.30;;;;;;;8.16;72.67;100828.69;5018242;28;20026;-74
2021/12/13 02:52:33;;;;;;;8.30;4.28;;;;;;;8.13;72.59;100828.06;5015777;28;20025;-76
2021/12/13 02:55:14;;;;;;;16.75;4.32;;;;;;;8.17;72.49;100833.09;5015902;28;20029;-76
2021/12/13 02:58:08;;;;;;;5.22;4.50;;;;;;;8.20;72.03;100826.69;5015378;28;20503;-76
2021/12/13 03:00:47;;;;;;;5.32;4.05;;;;;;;8.24;71.86;100825.50;4997738;28;20044;-74
2021/12/13 03:03:18;;;;;;;6.60;4.68;;;;;;;8.20;71.86;100811.47;5014394;28;20403;-76
2021/12/13 03:05:48;;;;;;;6.40;4.85;;;;;;;8.06;71.82;100826.78;5014388;28;20017;-76
2021/12/13 03:08:22;;;;;;;5.47;4.47;;;;;;;8.07;72.51;100817.78;5014306;28;20056;-76
2021/12/13 03:10:54;;;;;;;5.30;4.30;;;;;;;8.07;72.57;100807.06;5014781;28;20435;-76
2021/12/13 03:13:20;;;;;;;5.45;4.88;;;;;;;8.06;72.58;100811.56;5014461;28;20080;-76
2021/12/13 03:15:57;;;;;;;7.07;4.70;;;;;;;8.15;73.44;100834.19;5014054;28;20117;-77
2021/12/13 03:18:32;;;;;;;8.98;4.45;;;;;;;8.18;73.30;100820.56;5029035;28;20082;-76
2021/12/13 03:21:13;;;;;;;6.00;4.65;;;;;;;8.15;71.70;100826.16;5015763;28;20052;-77
2021/12/13 03:24:00;;;;;;;5.13;4.25;;;;;;;8.09;72.24;100842.63;5014422;28;20033;-76
2021/12/13 03:26:57;;;;;;;5.03;4.03;;;;;;;8.08;72.35;100827.50;5014304;28;20034;-76
2021/12/13 03:30:27;;;;;;;5.00;4.47;;;;;;;8.08;72.84;100835.56;5014314;28;20060;-76
2021/12/13 03:32:55;;;;;;;19.63;13.82;;;;;;;8.06;72.53;100837.47;4972337;28;20105;-76
2021/12/13 03:35:41;;;;;;;14.45;12.27;;;;;;;8.12;72.07;100837.94;4973053;28;20039;-76
2021/12/13 03:38:17;;;;;;;7.53;4.90;;;;;;;8.12;72.28;100821.00;4998087;28;20103;-77
2021/12/13 03:40:43;;;;;;;5.97;5.20;;;;;;;8.06;73.07;100837.47;5013942;28;20399;-77
2021/12/13 03:43:12;;;;;;;5.45;4.10;;;;;;;8.02;73.18;100844.00;5013808;28;20029;-77
2021/12/13 03:45:46;;;;;;;5.85;4.80;;;;;;;8.00;72.82;100837.91;5013546;28;20022;-76
2021/12/13 03:48:13;;;;;;;5.03;4.53;;;;;;;8.02;72.22;100842.19;5013966;28;20040;-76
2021/12/13 03:50:44;;;;;;;5.15;4.10;;;;;;;8.07;71.97;100861.47;5013531;28;20038;-77
2021/12/13 03:53:19;;;;;;;4.47;4.07;;;;;;;8.10;71.89;100866.63;5013645;28;20030;-76
2021/12/13 03:55:48;;;;;;;4.25;3.80;;;;;;;8.12;71.92;100854.00;5013356;28;20337;-76
2021/12/13 03:58:18;;;;;;;4.95;4.45;;;;;;;8.08;71.22;100856.97;5013622;28;20033;-76
2021/12/13 04:00:55;;;;;;;5.53;3.47;;;;;;;8.01;71.07;100869.91;5013566;28;20041;-76
2021/12/13 04:03:24;;;;;;;7.03;4.35;;;;;;;7.91;70.57;100867.97;5013139;28;20032;-76
2021/12/13 04:05:52;;;;;;;5.03;4.10;;;;;;;7.94;71.17;100871.31;5013420;28;20033;-76
2021/12/13 04:08:22;;;;;;;4.63;3.85;;;;;;;7.93;71.64;100869.59;5013006;28;20103;-76
2021/12/13 04:11:00;;;;;;;5.35;4.45;;;;;;;7.97;71.41;100859.53;5013079;28;20021;-76
2021/12/13 04:13:29;;;;;;;5.57;4.22;;;;;;;8.00;71.39;100853.97;5013011;28;20045;-76
2021/12/13 04:16:14;;;;;;;7.72;4.10;;;;;;;8.01;71.44;100864.56;5013535;28;20028;-76
2021/12/13 04:21:23;;;;;;;4.55;3.63;;;;;;;7.84;71.42;100875.56;5013264;28;20038;-76
2021/12/13 04:23:56;;;;;;;7.03;4.10;;;;;;;7.90;71.54;100874.28;5013072;28;20045;-75
2021/12/13 04:26:23;;;;;;;5.47;4.32;;;;;;;7.89;71.03;100869.91;5013410;28;20096;-76
2021/12/13 04:28:51;;;;;;;4.97;3.97;;;;;;;7.80;71.27;100878.53;5013367;28;20463;-76
2021/12/13 04:31:20;;;;;;;18.73;4.63;;;;;;;7.80;71.83;100886.59;5013114;28;20032;-76
2021/12/13 04:33:57;;;;;;;5.00;4.03;;;;;;;7.81;71.87;100869.53;5013143;28;20026;-76
2021/12/13 04:36:33;;;;;;;6.20;4.80;;;;;;;7.77;71.51;100862.69;5013131;28;20046;-76
2021/12/13 04:39:01;;;;;;;5.88;4.88;;;;;;;7.73;71.92;100847.78;5028210;28;20038;-76
2021/12/13 04:41:35;;;;;;;7.03;5.32;;;;;;;7.73;71.91;100861.16;5013316;28;20025;-76
2021/12/13 04:44:06;;;;;;;10.10;4.72;;;;;;;7.79;71.44;100871.47;5012798;28;20088;-76
2021/12/13 04:46:33;;;;;;;5.07;3.80;;;;;;;7.83;71.81;100873.81;5013314;28;20050;-77
2021/12/13 04:49:04;;;;;;;5.10;4.18;;;;;;;7.87;71.41;100869.13;5012954;28;20040;-76
2021/12/13 04:51:41;;;;;;;8.13;5.25;;;;;;;7.94;71.03;100860.59;5012725;28;20399;-76
2021/12/13 04:54:07;;;;;;;5.68;3.88;;;;;;;7.99;71.25;100879.03;5014479;28;20029;-77
2021/12/13 04:56:32;;;;;;;5.28;4.53;;;;;;;8.06;70.59;100877.66;5027017;28;20045;-77
2021/12/13 04:59:02;;;;;;;7.75;4.22;;;;;;;7.98;70.20;100861.25;5012927;28;20032;-75
2021/12/13 05:01:29;;;;;;;7.22;3.72;;;;;;;7.97;70.21;100865.75;5012118;28;20046;-76
2021/12/13 05:03:58;;;;;;;14.48;7.75;;;;;;;7.99;70.25;100873.66;5012236;28;20025;-76
2021/12/13 05:06:30;;;;;;;21.58;5.15;;;;;;;7.96;70.74;100865.84;5012629;28;20018;-76
2021/12/13 05:08:58;;;;;;;11.65;3.78;;;;;;;7.87;71.15;100867.31;5012466;28;20029;-76
2021/12/13 05:11:32;;;;;;;17.60;6.13;;;;;;;7.92;70.91;100872.38;5012835;28;20109;-76
2021/12/13 05:13:59;;;;;;;9.38;4.45;;;;;;;7.79;70.92;100866.13;5011994;28;20156;-75
2021/12/13 05:16:50;;;;;;;6.45;4.15;;;;;;;7.87;70.91;100870.00;5011933;28;20026;-76
2021/12/13 05:19:26;;;;;;;18.85;4.70;;;;;;;7.88;70.94;100873.53;5011648;28;20056;-75
2021/12/13 05:21:52;;;;;;;11.85;5.65;;;;;;;7.87;70.12;100877.16;5012674;28;20073;-76
2021/12/13 05:24:28;;;;;;;22.67;5.13;;;;;;;7.91;71.13;100889.41;5012180;28;20026;-76
2021/12/13 05:26:59;;;;;;;8.60;5.35;;;;;;;7.81;70.89;100865.03;5012237;28;20045;-76
2021/12/13 05:29:28;;;;;;;12.77;5.53;;;;;;;7.93;70.93;100874.94;5011945;28;20018;-76
2021/12/13 05:32:04;;;;;;;9.80;5.75;;;;;;;7.91;70.37;100878.69;5012053;28;20468;-76
2021/12/13 05:34:37;;;;;;;14.05;5.03;;;;;;;7.87;70.42;100883.38;5011917;28;20030;-76
2021/12/13 05:37:06;;;;;;;18.40;5.78;;;;;;;8.00;70.96;100888.78;5012202;28;20050;-76
2021/12/13 05:39:33;;;;;;;9.20;5.68;;;;;;;7.90;70.91;100874.28;5012044;28;20026;-76
2021/12/13 05:42:17;;;;;;;33.08;6.53;;;;;;;8.03;71.10;100880.53;5012176;28;20109;-76
2021/12/13 05:44:44;;;;;;;7.53;5.43;;;;;;;8.11;70.66;100859.44;5012359;28;20558;-77
2021/12/13 05:47:26;;;;;;;9.68;5.60;;;;;;;8.12;70.68;100853.13;5012511;28;20034;-78
2021/12/13 05:49:53;;;;;;;10.77;5.55;;;;;;;8.07;70.45;100841.88;5012792;28;20022;-77
2021/12/13 05:52:30;;;;;;;9.27;5.00;;;;;;;8.14;70.23;100857.44;5012696;28;20164;-76
2021/12/13 05:55:02;;;;;;;10.60;6.03;;;;;;;8.04;69.72;100844.78;5012611;28;20487;-76
2021/12/13 05:57:34;;;;;;;22.35;6.75;;;;;;;8.15;69.68;100837.72;5015307;28;20026;-76
2021/12/13 06:00:08;;;;;;;12.53;6.07;;;;;;;8.12;69.57;100854.00;5016064;28;20025;-76
2021/12/13 06:03:00;;;;;;;17.27;6.43;;;;;;;8.20;69.44;100873.09;5015943;28;20253;-76
2021/12/13 06:05:38;;;;;;;11.40;6.57;;;;;;;8.18;68.90;100880.38;5015928;28;20018;-76
2021/12/13 06:08:16;;;;;;;29.95;10.93;;;;;;;8.16;69.33;100860.03;5016527;28;20488;-76
2021/12/13 06:10:57;;;;;;;12.13;7.00;;;;;;;8.18;69.16;100874.16;5032332;28;20443;-76
2021/12/13 06:13:46;;;;;;;11.50;6.38;;;;;;;8.09;68.55;100874.78;5035583;28;20171;-76
2021/12/13 06:16:43;;;;;;;11.73;7.53;;;;;;;7.93;67.80;100874.06;5035082;28;20505;-76
2021/12/13 06:19:29;;;;;;;16.23;9.55;;;;;;;7.84;68.42;100886.25;5033721;28;20041;-77
2021/12/13 06:22:02;;;;;;;11.15;8.13;;;;;;;7.88;68.36;100900.31;5027791;28;20041;-77
2021/12/13 06:24:36;;;;;;;28.15;7.22;;;;;;;7.77;68.78;100889.47;5034530;28;20032;-77
2021/12/13 06:27:10;;;;;;;10.23;5.57;;;;;;;7.81;68.80;100907.03;5034917;28;20610;-77
2021/12/13 06:29:53;;;;;;;7.90;5.65;;;;;;;7.86;67.99;100926.34;5030063;28;20029;-76
2021/12/13 06:32:35;;;;;;;10.10;6.43;;;;;;;7.67;67.04;100935.53;5036968;28;20037;-74
2021/12/13 06:35:39;;;;;;;24.35;8.70;;;;;;;7.51;67.33;100948.22;5040056;28;20038;-76
2021/12/13 06:38:19;;;;;;;13.00;8.27;;;;;;;7.56;67.34;100943.41;5019424;28;20102;-77
2021/12/13 06:40:57;;;;;;;13.32;7.25;;;;;;;7.57;67.71;100945.13;5014792;28;20109;-76
2021/12/13 06:43:32;;;;;;;17.23;7.95;;;;;;;7.53;67.58;100973.03;5024780;28;20013;-77
2021/12/13 06:46:01;;;;;;;10.48;6.57;;;;;;;7.44;67.57;100968.28;5034263;28;20473;-77
2021/12/13 06:48:43;;;;;;;9.13;5.32;;;;;;;7.34;67.86;100948.41;5034895;28;20104;-77
2021/12/13 06:51:12;;;;;;;11.13;6.00;;;;;;;7.49;68.52;100954.63;5034271;28;20033;-78
2021/12/13 06:53:39;;;;;;;14.63;7.35;;;;;;;7.54;68.27;100953.38;5034121;28;20049;-78
2021/12/13 06:56:25;;;;;;;17.02;6.80;;;;;;;7.47;68.50;100935.97;5033968;28;20025;-80
2021/12/13 06:58:58;;;;;;;9.60;6.75;;;;;;;7.41;68.38;100933.69;5035175;28;20403;-78
2021/12/13 07:01:24;;;;;;;;;;;;;;;7.32;67.80;100936.94;5034869;28;20087;-76
2021/12/13 07:03:58;;;;;;;15.43;7.25;;;;;;;7.22;68.51;100932.25;5034535;28;19913;-78
2021/12/13 07:06:25;;;;;;;8.48;6.20;;;;;;;7.03;68.14;100940.59;5034267;28;20079;-79
2021/12/13 07:09:06;;;;;;;10.43;6.57;;;;;;;7.14;68.55;100938.09;5034896;28;20438;-80
2021/12/13 07:11:56;;;;;;;16.48;7.38;;;;;;;7.17;68.36;100943.25;5034464;28;20112;-77
2021/12/13 07:14:36;;;;;;;13.32;8.23;;;;;;;7.25;68.44;100951.66;5034008;28;20024;-78
2021/12/13 07:17:13;;;;;;;11.45;7.65;;;;;;;7.38;68.86;100963.31;5033903;28;20025;-78
2021/12/13 07:19:41;;;;;;;11.18;7.43;;;;;;;7.31;68.65;100956.63;5034730;28;20158;-77
2021/12/13 07:22:08;;;;;;;25.85;10.82;;;;;;;7.42;67.93;100986.25;5035040;28;20033;-77
2021/12/13 07:24:43;;;;;;;11.40;7.40;;;;;;;7.50;67.67;100973.25;5035423;28;20037;-77
2021/12/13 07:27:13;;;;;;;15.10;7.82;;;;;;;7.44;67.12;100978.97;5041867;28;20021;-77
2021/12/13 07:29:43;;;;;;;25.95;9.00;;;;;;;7.43;67.76;100985.28;5041498;28;20037;-78
2021/12/13 07:32:12;;;;;;;12.63;6.10;;;;;;;7.49;66.86;100992.09;5037756;28;20079;-77
2021/12/13 07:34:59;;;;;;;19.60;6.82;;;;;;;7.30;66.64;100981.66;5033543;28;20472;-77
2021/12/13 07:37:52;;;;;;;14.95;8.70;;;;;;;7.40;66.35;100988.13;5032083;28;20388;-77
2021/12/13 07:40:24;;;;;;;14.70;7.50;;;;;;;7.45;66.71;101002.13;5034048;28;20487;-78
2021/12/13 07:43:11;;;;;;;16.88;8.70;;;;;;;7.56;66.01;101002.28;5033992;28;20026;-77
2021/12/13 07:45:42;;;;;;;14.65;9.52;;;;;;;7.60;65.88;101003.81;5033468;28;20067;-77
2021/12/13 07:48:14;;;;;;;13.57;7.45;;;;;;;7.59;65.70;101004.78;5033842;28;20053;-77
2021/12/13 07:50:40;;;;;;;;;;;;;;;7.59;65.13;101004.78;5034283;28;20068;-78
2021/12/13 07:53:10;;;;;;;15.35;8.48;;;;;;;7.51;65.90;101007.09;5033984;28;19995;-77
2021/12/13 07:55:46;;;;;;;11.52;7.38;;;;;;;7.55;65.74;101003.22;5033515;28;20029;-77
2021/12/13 07:58:16;;;;;;;20.65;8.70;;;;;;;7.50;65.86;100997.31;5033812;28;20108;-78
2021/12/13 08:00:41;;;;;;;13.57;7.75;;;;;;;7.48;65.60;100999.25;5033918;28;20025;-77
2021/12/13 08:03:21;;;;;;;12.27;6.82;;;;;;;7.37;65.67;100999.03;5033833;28;20029;-77
2021/12/13 08:05:51;;;;;;;9.70;6.95;;;;;;;7.35;65.75;100990.25;5036596;28;20022;-78
2021/12/13 08:08:27;;;;;;;16.30;7.35;;;;;;;7.46;65.41;100998.47;5033866;28;20021;-77
2021/12/13 08:10:57;;;;;;;16.58;7.72;;;;;;;7.48;65.83;100993.91;5042142;28;20097;-78
2021/12/13 08:13:30;;;;;;;21.95;7.07;;;;;;;7.47;65.85;100989.50;5038653;28;20033;-79
2021/12/13 08:16:05;;;;;;;13.80;8.30;;;;;;;7.48;65.13;100985.88;5033287;28;20087;-78
2021/12/13 08:18:38;;;;;;;17.65;7.93;;;;;;;7.56;65.82;100988.03;5031843;28;20430;-79
2021/12/13 08:21:13;;;;;;;18.38;9.95;;;;;;;7.59;65.74;100993.19;5039326;28;20088;-77
2021/12/13 08:23:43;;;;;;;21.88;9.55;;;;;;;7.54;65.41;101003.34;5033000;28;20036;-77
2021/12/13 08:26:13;;;;;;;11.93;7.78;;;;;;;7.48;65.26;100991.22;5033072;28;20025;-77
2021/12/13 08:28:44;;;;;;;15.27;8.82;;;;;;;7.37;65.64;100996.38;5032907;28;20029;-78
2021/12/13 08:31:20;;;;;;;12.23;8.52;;;;;;;7.35;66.37;100995.59;5035987;28;20060;-78
2021/12/13 08:33:49;;;;;;;15.93;9.98;;;;;;;7.25;66.46;100988.25;5053790;28;20039;-79
2021/12/13 08:36:28;;;;;;;22.02;9.27;;;;;;;7.40;66.60;100985.47;5053684;28;20025;-78
2021/12/13 08:38:54;;;;;;;19.05;10.13;;;;;;;7.47;66.90;100978.78;5035645;28;20047;-78
2021/12/13 08:41:21;;;;;;;22.45;11.10;;;;;;;7.51;66.42;100980.31;5053459;28;20398;-78
2021/12/13 08:43:51;;;;;;;16.20;9.15;;;;;;;7.59;66.89;100975.34;5053807;28;20017;-77
2021/12/13 08:46:55;;;;;;;18.35;9.32;;;;;;;7.55;66.39;100965.78;5052931;28;20021;-79
2021/12/13 08:49:29;;;;;;;31.33;10.05;;;;;;;7.56;66.54;100970.19;5052568;28;20402;-77
2021/12/13 08:52:02;;;;;;;17.00;10.65;;;;;;;7.68;67.38;100961.38;5052985;28;20055;-79
2021/12/13 08:54:57;;;;;;;16.88;9.30;;;;;;;7.68;66.45;100965.84;5052967;28;20017;-78
2021/12/13 08:57:31;;;;;;;17.77;10.00;;;;;;;7.73;66.50;100968.25;5055894;28;20033;-79
2021/12/13 09:00:00;;;;;;;14.75;9.75;;;;;;;7.73;66.71;100984.31;5053893;28;20033;-79
2021/12/13 09:02:28;;;;;;;20.73;9.27;;;;;;;7.72;66.70;100977.22;5053084;28;20029;-77
2021/12/13 09:05:11;;;;;;;17.75;8.38;;;;;;;7.75;66.76;100987.75;5053202;28;20108;-78
2021/12/13 09:07:51;;;;;;;16.85;8.32;;;;;;;7.74;67.04;100986.88;5051787;28;20033;-78
2021/12/13 09:10:18;;;;;;;15.15;8.65;;;;;;;7.81;67.10;100993.56;5052263;28;20025;-77
2021/12/13 09:12:45;;;;;;;13.52;8.65;;;;;;;7.71;66.81;100988.88;5052349;28;20174;-77
2021/12/13 09:15:22;;;;;;;15.38;9.07;;;;;;;7.78;66.93;100991.09;5051870;28;20029;-78
2021/12/13 09:17:50;;;;;;;16.90;8.43;;;;;;;7.57;67.29;100985.28;5052465;28;20029;-78
2021/12/13 09:20:19;;;;;;;16.60;8.50;;;;;;;7.63;67.40;100992.94;5052564;28;20507;-77
2021/12/13 09:22:49;;;;;;;16.17;10.27;;;;;;;7.35;68.07;101000.09;5052806;28;20144;-77
2021/12/13 09:25:44;;;;;;;15.38;9.45;;;;;;;7.59;67.75;100998.56;5052753;28;20032;-77
2021/12/13 09:28:21;;;;;;;23.10;9.85;;;;;;;7.63;67.78;101000.97;5052847;28;20471;-77
2021/12/13 09:30:54;;;;;;;20.33;8.88;;;;;;;7.74;68.05;101002.94;5042517;28;20478;-77
2021/12/13 09:33:28;;;;;;;11.95;7.90;;;;;;;7.81;67.17;100987.34;5016691;28;20448;-79
2021/12/13 09:36:19;;;;;;;24.58;10.63;;;;;;;7.78;67.48;100993.75;5016348;28;20488;-77
2021/12/13 09:38:54;;;;;;;20.40;10.52;;;;;;;7.66;67.89;100987.38;5016362;28;20030;-78
2021/12/13 09:41:32;;;;;;;19.52;8.63;;;;;;;7.79;68.12;100983.91;5016710;28;20057;-78
2021/12/13 09:44:13;;;;;;;16.48;8.38;;;;;;;7.82;68.04;100978.38;5031029;28;20025;-79
2021/12/13 09:46:52;;;;;;;19.77;8.90;;;;;;;7.76;67.50;100981.44;5036233;28;20025;-77
2021/12/13 09:49:20;;;;;;;17.38;8.98;;;;;;;7.78;67.91;100971.47;5050012;28;20068;-79
2021/12/13 09:52:12;;;;;;;13.48;7.43;;;;;;;7.60;68.27;100971.72;5040305;28;20086;-79
2021/12/13 09:54:48;;;;;;;13.07;8.50;;;;;;;7.67;68.67;100991.75;5035298;28;20076;-80
2021/12/13 09:57:18;;;;;;;20.40;8.75;;;;;;;7.59;68.19;100991.38;5035667;28;20032;-77
2021/12/13 09:59:48;;;;;;;30.33;9.50;;;;;;;7.68;68.41;100982.78;5035683;28;20059;-78
2021/12/13 10:02:29;;;;;;;15.13;8.90;;;;;;;7.75;68.88;100985.06;5035524;28;20025;-77
2021/12/13 10:04:56;;;;;;;23.57;10.30;;;;;;;7.81;68.89;100976.63;5037682;28;20387;-77
2021/12/13 10:07:31;;;;;;;21.92;10.00;;;;;;;7.81;68.45;100987.34;5039814;28;20075;-80
2021/12/13 10:10:11;;;;;;;18.00;8.63;;;;;;;7.90;68.60;100984.06;5036393;28;20363;-78
2021/12/13 10:12:45;;;;;;;17.70;8.73;;;;;;;7.98;68.44;100968.38;5039209;28;20545;-78
2021/12/13 10:15:18;;;;;;;29.58;12.52;;;;;;;8.06;68.55;100974.09;5038736;28;20033;-79
2021/12/13 10:17:47;;;;;;;21.15;9.55;;;;;;;8.03;68.39;100960.91;5038073;28;20021;-77
2021/12/13 10:20:18;;;;;;;17.42;7.95;;;;;;;8.04;67.58;100947.38;5036452;28;20045;-77
2021/12/13 10:22:44;;;;;;;17.33;8.90;;;;;;;8.06;67.52;100949.97;5019167;28;20130;-77
2021/12/13 10:25:26;;;;;;;19.85;10.23;;;;;;;8.07;67.59;100946.34;5037598;28;20036;-79
2021/12/13 10:27:53;;;;;;;15.00;8.70;;;;;;;8.16;67.33;100940.38;5036773;28;20026;-79
2021/12/13 10:30:27;;;;;;;11.85;7.88;;;;;;;8.17;67.81;100944.75;5037054;28;20121;-76
2021/12/13 10:32:53;;;;;;;16.30;7.85;;;;;;;8.11;67.80;100943.34;5037015;28;20112;-80
2021/12/13 10:35:28;;;;;;;13.07;8.88;;;;;;;8.18;67.89;100943.81;5034040;28;20056;-78
2021/12/13 10:37:59;;;;;;;12.27;7.78;;;;;;;8.28;67.55;100950.31;5035642;28;20075;-78
2021/12/13 10:40:27;;;;;;;16.95;9.20;;;;;;;8.20;67.19;100936.53;5035670;28;20033;-77
2021/12/13 10:43:07;;;;;;;19.33;9.07;;;;;;;8.18;67.48;100938.47;5033928;28;20391;-77
2021/12/13 10:45:40;;;;;;;19.08;10.38;;;;;;;8.19;67.50;100934.81;5035001;28;20024;-77
2021/12/13 10:48:12;;;;;;;16.10;8.68;;;;;;;8.27;67.35;100937.84;5034773;28;20457;-78
2021/12/13 10:50:39;;;;;;;11.75;8.38;;;;;;;8.34;67.14;100941.88;5035751;28;20030;-77
2021/12/13 10:53:08;;;;;;;14.75;8.75;;;;;;;8.38;67.36;100954.09;5035770;28;20040;-79
2021/12/13 10:55:44;;;;;;;28.92;9.10;;;;;;;8.16;67.98;100946.56;5035861;28;20025;-78
2021/12/13 10:58:13;;;;;;;20.85;9.52;;;;;;;8.12;68.14;100938.88;5034837;28;20029;-79
2021/12/13 11:00:47;;;;;;;10.40;7.55;;;;;;;8.07;68.21;100946.34;5034675;28;20057;-79
2021/12/13 11:03:19;;;;;;;15.02;7.65;;;;;;;8.05;68.04;100948.25;5034454;28;20476;-79
2021/12/13 11:05:45;;;;;;;12.18;8.43;;;;;;;8.08;67.69;100958.78;5034064;28;20041;-78
2021/12/13 11:08:14;;;;;;;12.18;8.02;;;;;;;8.09;67.79;100955.13;5034239;28;20056;-78
2021/12/13 11:10:47;;;;;;;15.40;8.68;;;;;;;7.99;68.06;100943.31;5034174;28;20406;-78
2021/12/13 11:13:14;;;;;;;14.10;9.80;;;;;;;7.99;68.54;100954.00;5034356;28;20113;-78
2021/12/13 11:15:43;;;;;;;15.43;10.57;;;;;;;7.95;68.36;100963.22;5034581;28;20033;-78
2021/12/13 11:18:13;;;;;;;20.45;10.20;;;;;;;7.75;68.70;100960.97;5034287;28;20037;-78
2021/12/13 11:20:43;;;;;;;14.25;8.85;;;;;;;7.56;69.68;100948.75;5045168;28;20541;-78
2021/12/13 11:23:12;;;;;;;19.38;10.93;;;;;;;7.48;70.32;100935.03;5054985;28;20119;-78
2021/12/13 11:25:45;;;;;;;13.77;9.27;;;;;;;7.54;70.63;100941.78;5054153;28;20017;-78
2021/12/13 11:28:14;;;;;;;13.75;10.13;;;;;;;7.48;70.45;100932.34;5057014;28;20057;-78
2021/12/13 11:30:42;;;;;;;15.82;10.35;;;;;;;7.46;70.85;100928.88;5058941;28;20406;-78
2021/12/13 11:33:12;;;;;;;21.15;14.85;;;;;;;7.55;70.92;100930.97;5034636;28;20380;-78
2021/12/13 11:36:07;;;;;;;15.23;10.68;;;;;;;7.51;70.41;100924.13;5034329;28;20061;-77
2021/12/13 11:39:00;;;;;;;12.40;8.52;;;;;;;7.61;70.76;100938.59;5034370;28;20053;-77
2021/12/13 11:41:51;;;;;;;16.13;9.38;;;;;;;7.72;70.89;100932.56;5016095;28;20029;-78
2021/12/13 11:44:44;;;;;;;17.27;10.38;;;;;;;7.64;70.07;100941.09;5034247;28;20102;-80
2021/12/13 11:47:34;;;;;;;14.32;9.85;;;;;;;7.60;69.97;100931.56;5034100;28;20411;-78
2021/12/13 11:50:38;;;;;;;16.65;9.63;;;;;;;7.59;70.77;100935.19;5033684;28;20044;-77
2021/12/13 11:53:42;;;;;;;19.02;10.60;;;;;;;7.63;70.78;100931.34;5034082;28;20018;-77
2021/12/13 11:56:34;;;;;;;20.90;11.65;;;;;;;7.70;71.19;100930.97;4991916;28;20400;-78
2021/12/13 11:59:25;;;;;;;17.55;11.60;;;;;;;7.76;71.49;100926.06;5043354;28;20043;-81
2021/12/13 12:02:21;;;;;;;15.20;9.82;;;;;;;7.83;70.99;100926.53;5053229;28;20029;-76
2021/12/13 12:05:11;;;;;;;19.27;11.30;;;;;;;8.03;71.59;100928.75;5054050;28;20029;-77
2021/12/13 12:08:01;;;;;;;18.95;9.73;;;;;;;8.12;71.04;100923.66;5054062;28;20059;-79
2021/12/13 12:10:50;;;;;;;16.63;10.18;;;;;;;8.22;70.73;100918.53;5054694;28;20040;-80
2021/12/13 12:13:41;;;;;;;13.07;8.63;;;;;;;8.21;70.39;100916.81;5054058;28;20020;-76
2021/12/13 12:16:08;;;;;;;19.92;8.63;;;;;;;8.24;70.58;100916.63;5053333;28;20031;-77
2021/12/13 12:18:38;;;;;;;18.50;10.15;;;;;;;8.35;70.04;100930.16;5054470;28;20033;-84